• Join FlightAware (Why Join?)
  • Login
  • US Flag 
04:34AM EST


 

Airport Tracker/Info


-or-


 

Live Flight TrackerFlight Track Log ✈ EZY2759 ✈ 11-Apr-2013 ✈ LIMC / MXP - LEBL / BCN

Flight Track Log - Related Links

Times and Time Zones

All times are in EDT time to prevent confusion due to time zone crossing. See the EZY2759 flight status page for this flight to view local times or setup timezone preferences in your user account.

Time Position Orientation Groundspeed Altitude Reporting Facility
EDT Latitude Longitude Course Direction KTS MPH feet Rate Location/Type
12:51AM 45.0927 7.8131 230° Southwest  Level Estimated
12:52AM 45.0435 7.7308 230° Southwest  Level Estimated
12:53AM 44.9942 7.6486 230° Southwest  Level Estimated
12:54AM 44.9448 7.5666 230° Southwest  Level Estimated
12:55AM 44.8954 7.4847 230° Southwest  Level Estimated
12:56AM 44.8459 7.4029 230° Southwest  Level Estimated
12:57AM 44.7963 7.3213 229° Southwest  Level Estimated
12:58AM 44.7467 7.2399 229° Southwest  Level Estimated
12:59AM 44.6939 7.1534 229° Southwest  Level Estimated
01:00AM 44.6411 7.0672 229° Southwest  Level Estimated
01:01AM 44.5882 6.9811 229° Southwest  Level Estimated
01:02AM 44.5352 6.8951 229° Southwest  Level Estimated
01:03AM 44.4779 6.8024 229° Southwest  Level Estimated
01:04AM 44.4205 6.7098 229° Southwest  Level Estimated
01:05AM 44.3630 6.6175 229° Southwest  Level Estimated
01:06AM 44.3055 6.5253 229° Southwest  Level Estimated
01:07AM 44.2478 6.4333 229° Southwest  Level Estimated
01:08AM 44.1901 6.3415 229° Southwest  Level Estimated
01:09AM 44.1323 6.2498 229° Southwest  Level Estimated
01:10AM 44.0745 6.1583 229° Southwest  Level Estimated
01:11AM 44.0166 6.0670 229° Southwest  Level Estimated
01:12AM 43.9586 5.9759 229° Southwest  Level Estimated
01:13AM 43.9005 5.8850 228° Southwest  Level Estimated
01:14AM 43.8424 5.7942 228° Southwest  Level Estimated
01:15AM 43.7841 5.7036 228° Southwest  Level Estimated
01:16AM 43.7259 5.6132 228° Southwest  Level Estimated
01:17AM 43.6675 5.5230 228° Southwest  Level Estimated
01:18AM 43.6091 5.4330 228° Southwest  Level Estimated
01:19AM 43.5506 5.3431 228° Southwest  Level Estimated
01:20AM 43.4920 5.2534 228° Southwest  Level Estimated
01:21AM 43.4334 5.1639 228° Southwest  Level Estimated
01:22AM 43.3747 5.0745 228° Southwest  Level Estimated
01:23AM 43.3159 4.9853 228° Southwest  Level Estimated
01:24AM 43.2570 4.8963 228° Southwest  Level Estimated
01:25AM 43.1981 4.8075 228° Southwest  Level Estimated
01:26AM 43.1391 4.7188 228° Southwest  Level Estimated
01:27AM 43.0801 4.6303 228° Southwest  Level Estimated
01:28AM 43.0210 4.5420 228° Southwest  Level Estimated
01:29AM 42.9618 4.4538 227° Southwest  Level Estimated
01:30AM 42.9025 4.3658 227° Southwest  Level Estimated
01:31AM 42.8432 4.2780 227° Southwest  Level Estimated
01:32AM 42.7838 4.1904 227° Southwest  Level Estimated
01:33AM 42.7244 4.1029 227° Southwest  Level Estimated
01:34AM 42.6648 4.0156 227° Southwest  Level Estimated
01:35AM 42.6053 3.9284 227° Southwest  Level Estimated
01:36AM 42.5456 3.8414 227° Southwest  Level Estimated
01:37AM 42.4859 3.7546 227° Southwest  Level Estimated
01:38AM 42.4261 3.6680 227° Southwest  Level Estimated
01:39AM 42.3663 3.5815 227° Southwest  Level Estimated
01:40AM 42.3064 3.4952 227° Southwest  Level Estimated
01:41AM 42.2464 3.4090 227° Southwest  Level Estimated
01:42AM 42.1863 3.3230 227° Southwest  Level Estimated
01:43AM 42.1262 3.2372 227° Southwest  Level Estimated
01:44AM 42.0661 3.1515 227° Southwest  Level Estimated
01:45AM 42.0058 3.0660 227° Southwest  Level Estimated
01:46AM 41.9455 2.9807 226° Southwest  Level Estimated
01:47AM 41.8852 2.8955 226° Southwest  Level Estimated
01:48AM 41.8247 2.8105 226° Southwest  Level Estimated
01:49AM 41.7642 2.7256 226° Southwest  Level Estimated
01:50AM 41.7037 2.6409 226° Southwest  Level Estimated
01:51AM 41.6431 2.5564 226° Southwest  Level Estimated
01:52AM 41.5824 2.4720 226° Southwest  Level Estimated
01:53AM 41.5217 2.3878 226° Southwest  Level Estimated
01:54AM 41.4609 2.3037 226° Southwest  Level Estimated
01:55AM 41.4000 2.2198 226° Southwest  Level Estimated
01:56AM 41.3391 2.1361 226° Southwest  Level Estimated
01:57AM 41.2971 2.0785 226° Southwest  Level Estimated
01:58AM 41.2971 2.0785 124° Southeast  Level Estimated
01:59AM 41.2971 2.0785 124° Southeast  Level Estimated
02:00AM 41.2971 2.0785 124° Southeast  Level Estimated
02:01AM 41.2971 2.0785 124° Southeast  Level Estimated
02:02AM 41.2971 2.0785 124° Southeast  Level Estimated
02:03AM 41.2971 2.0785 124° Southeast  Level Estimated
02:04AM 41.2971 2.0785 124° Southeast  Level Estimated
02:05AM 41.2971 2.0785 124° Southeast  Level Estimated
02:06AM 41.2971 2.0785 124° Southeast  Level Estimated
02:07AM 41.2971 2.0785 124° Southeast  Level Estimated
02:08AM 41.2971 2.0785 124° Southeast  Level Estimated
02:09AM 41.2971 2.0785 124° Southeast  Level Estimated